Time;durP1;ratioP1;P1;durP2;ratioP2;P2;SDS_P1;SDS_P2;PMS_P1;PMS_P2;Temp;Humidity;BMP_temperature;BMP_pressure;BME280_temperature;BME280_humidity;BME280_pressure;Samples;Min_cycle;Max_cycle;Signal;HPM_P1;HPM_P2
2021/03/08 00:00:14;;;;;;;30.53;22.37;;;1.10;99.90;;;;;;5042724;28;20282;-76
2021/03/08 00:02:41;;;;;;;30.03;22.27;;;1.10;99.90;;;;;;5052081;28;20287;-76
2021/03/08 00:05:11;;;;;;;34.93;22.63;;;1.10;99.90;;;;;;5051295;28;20375;-75
2021/03/08 00:07:37;;;;;;;32.23;22.70;;;1.10;99.90;;;;;;5052048;28;20669;-75
2021/03/08 00:10:05;;;;;;;32.50;23.20;;;1.00;99.90;;;;;;5052299;28;20235;-75
2021/03/08 00:12:31;;;;;;;31.23;22.93;;;0.90;99.90;;;;;;5041128;28;20299;-75
2021/03/08 00:14:58;;;;;;;31.80;23.03;;;0.80;99.90;;;;;;5045451;28;20255;-76
2021/03/08 00:17:25;;;;;;;30.20;22.43;;;0.60;99.90;;;;;;5047782;28;20307;-76
2021/03/08 00:19:52;;;;;;;34.43;24.13;;;0.70;99.90;;;;;;5050984;28;20369;-75
2021/03/08 00:22:19;;;;;;;33.67;22.90;;;0.60;99.90;;;;;;5052613;28;20235;-76
2021/03/08 00:24:46;;;;;;;34.07;23.77;;;0.70;99.90;;;;;;5051870;28;20308;-76
2021/03/08 00:27:12;;;;;;;36.00;24.67;;;0.60;99.90;;;;;;5048639;28;20228;-76
2021/03/08 00:29:39;;;;;;;35.43;23.97;;;0.80;99.90;;;;;;5051062;28;20279;-76
2021/03/08 00:32:07;;;;;;;33.97;23.67;;;0.80;99.90;;;;;;5051860;28;20207;-76
2021/03/08 00:34:35;;;;;;;35.33;24.40;;;0.80;99.90;;;;;;5042777;28;20595;-76
2021/03/08 00:37:02;;;;;;;34.83;24.63;;;0.80;99.90;;;;;;5051437;28;20228;-76
2021/03/08 00:39:29;;;;;;;32.80;23.37;;;0.80;99.90;;;;;;5051718;28;20238;-75
2021/03/08 00:41:56;;;;;;;40.33;25.47;;;0.80;99.90;;;;;;5051112;28;20239;-76
2021/03/08 00:44:22;;;;;;;34.90;24.17;;;0.80;99.90;;;;;;5051405;28;20742;-76
2021/03/08 00:46:48;;;;;;;37.70;24.73;;;0.80;99.90;;;;;;5051170;28;20238;-76
2021/03/08 00:49:15;;;;;;;34.73;23.87;;;0.80;99.90;;;;;;5050366;28;20231;-76
2021/03/08 00:51:42;;;;;;;35.00;23.30;;;0.80;99.90;;;;;;5051591;28;20235;-75
2021/03/08 00:54:09;;;;;;;36.13;24.33;;;0.70;99.90;;;;;;5051351;28;20262;-76
2021/03/08 00:56:36;;;;;;;36.37;24.57;;;0.60;99.90;;;;;;5047726;28;20586;-76
2021/03/08 00:59:02;;;;;;;35.47;24.27;;;0.60;99.90;;;;;;5045017;28;20235;-76
2021/03/08 01:01:29;;;;;;;36.70;25.53;;;0.60;99.90;;;;;;5051685;28;20239;-76
2021/03/08 01:03:55;;;;;;;36.87;24.93;;;0.60;99.90;;;;;;5049304;28;20306;-76
2021/03/08 01:06:21;;;;;;;36.80;24.53;;;0.60;99.90;;;;;;5051534;28;20236;-76
2021/03/08 01:08:48;;;;;;;33.67;24.20;;;0.60;99.90;;;;;;5050885;28;20320;-75
2021/03/08 01:11:14;;;;;;;41.00;24.83;;;0.60;99.90;;;;;;5050683;28;20277;-76
2021/03/08 01:13:42;;;;;;;36.73;25.27;;;0.50;99.90;;;;;;5050942;28;20722;-76
2021/03/08 01:16:08;;;;;;;37.27;24.37;;;0.60;99.90;;;;;;5050404;28;20231;-76
2021/03/08 01:18:35;;;;;;;36.80;25.23;;;0.40;99.90;;;;;;5025684;28;20647;-76
2021/03/08 01:21:01;;;;;;;38.50;25.27;;;0.30;99.90;;;;;;5047478;28;20218;-75
2021/03/08 01:23:27;;;;;;;36.60;24.87;;;0.10;99.90;;;;;;5051353;28;20288;-76
2021/03/08 01:25:54;;;;;;;34.83;24.40;;;-0.10;99.90;;;;;;5050803;28;20287;-75
2021/03/08 01:28:20;;;;;;;37.27;25.77;;;-0.20;99.90;;;;;;5051239;28;20232;-76
2021/03/08 01:30:48;;;;;;;37.40;25.30;;;-0.10;99.90;;;;;;5047512;28;20200;-75
2021/03/08 01:33:14;;;;;;;37.63;25.27;;;-0.30;99.90;;;;;;5046374;28;20287;-76
2021/03/08 01:35:41;;;;;;;38.53;25.93;;;-0.20;99.90;;;;;;5046831;28;20196;-75
2021/03/08 01:38:08;;;;;;;36.77;24.93;;;-0.30;99.90;;;;;;5050680;28;20287;-76
2021/03/08 01:40:38;;;;;;;38.27;24.67;;;-0.20;99.90;;;;;;5050930;28;20235;-75
2021/03/08 01:43:04;;;;;;;39.57;25.47;;;-0.30;99.90;;;;;;5053947;28;20280;-75
2021/03/08 01:45:31;;;;;;;39.20;24.93;;;-0.30;99.90;;;;;;5050540;28;20304;-76
2021/03/08 01:47:58;;;;;;;38.00;24.80;;;-0.30;99.90;;;;;;5037399;28;20208;-77
2021/03/08 01:50:30;;;;;;;38.40;25.37;;;-0.30;99.90;;;;;;5054432;28;20235;-76
2021/03/08 01:52:58;;;;;;;39.33;25.37;;;-0.30;99.90;;;;;;5042746;28;20277;-76
2021/03/08 01:55:26;;;;;;;34.37;24.00;;;-0.40;99.90;;;;;;5054987;28;20670;-76
2021/03/08 01:57:52;;;;;;;37.03;25.30;;;-0.40;99.90;;;;;;5050931;28;20238;-76
2021/03/08 02:00:19;;;;;;;35.53;24.40;;;-0.50;99.90;;;;;;5054115;28;20207;-76
2021/03/08 02:02:47;;;;;;;37.40;25.30;;;-0.50;99.90;;;;;;5054811;28;20299;-76
2021/03/08 02:05:16;;;;;;;38.30;23.30;;;-0.60;99.90;;;;;;5054216;28;20690;-75
2021/03/08 02:07:43;;;;;;;38.03;23.90;;;-0.70;99.90;;;;;;5053956;28;20287;-76
2021/03/08 02:10:11;;;;;;;37.17;25.50;;;-0.70;99.90;;;;;;5053546;28;20291;-76
2021/03/08 02:12:58;;;;;;;36.53;24.77;;;-0.70;99.90;;;;;;5053922;28;20234;-76
2021/03/08 02:15:35;;;;;;;42.20;26.03;;;-0.70;99.90;;;;;;5049954;28;20287;-76
2021/03/08 02:18:05;;;;;;;40.60;26.10;;;-0.60;99.90;;;;;;5048374;28;20309;-76
2021/03/08 02:20:51;;;;;;;41.20;25.07;;;-0.60;99.90;;;;;;5045227;28;20260;-76
2021/03/08 02:24:03;;;;;;;45.60;25.87;;;-0.60;99.90;;;;;;5044643;28;20564;-76
2021/03/08 02:26:41;;;;;;;39.87;25.33;;;-0.70;99.90;;;;;;5051395;28;20227;-76
2021/03/08 02:29:58;;;;;;;38.57;25.07;;;-0.70;99.90;;;;;;5053271;28;20195;-76
2021/03/08 02:32:30;;;;;;;37.57;24.33;;;-0.80;99.90;;;;;;5019083;28;20287;-76
2021/03/08 02:35:02;;;;;;;38.33;25.07;;;-0.80;99.90;;;;;;5023101;28;20257;-76
2021/03/08 02:37:32;;;;;;;42.67;26.00;;;-0.80;99.90;;;;;;5023814;28;20237;-76
2021/03/08 02:40:04;;;;;;;40.90;26.40;;;-0.80;99.90;;;;;;5018781;28;20279;-76
2021/03/08 02:42:37;;;;;;;41.23;26.10;;;-0.70;99.90;;;;;;5023713;28;20288;-76
2021/03/08 02:45:06;;;;;;;42.17;25.93;;;-0.80;99.90;;;;;;5031688;28;20255;-76
2021/03/08 02:47:37;;;;;;;40.00;25.77;;;-0.80;99.90;;;;;;5015099;28;20623;-76
2021/03/08 02:50:07;;;;;;;41.40;25.63;;;-0.80;99.90;;;;;;5017811;28;20228;-76
2021/03/08 02:52:35;;;;;;;42.70;26.73;;;-0.90;99.90;;;;;;5027190;28;20237;-76
2021/03/08 02:55:04;;;;;;;40.50;25.97;;;-0.80;99.90;;;;;;5014090;28;20248;-76
2021/03/08 02:57:37;;;;;;;40.80;25.83;;;-0.80;99.90;;;;;;5030096;28;20283;-76
2021/03/08 03:00:07;;;;;;;40.10;25.53;;;-0.70;99.90;;;;;;5015147;28;20211;-76
2021/03/08 03:02:35;;;;;;;40.70;25.33;;;-0.80;99.90;;;;;;5031099;28;20243;-76
2021/03/08 03:05:06;;;;;;;40.83;25.70;;;-0.80;99.90;;;;;;5031931;28;20318;-76
2021/03/08 03:07:34;;;;;;;39.20;25.03;;;-0.80;99.90;;;;;;5030087;28;20303;-76
2021/03/08 03:10:02;;;;;;;38.40;25.23;;;-1.00;99.90;;;;;;5048536;28;20219;-76
2021/03/08 03:12:30;;;;;;;38.93;24.10;;;-1.00;99.90;;;;;;5053163;28;20239;-75
2021/03/08 03:14:58;;;;;;;39.70;25.10;;;-1.00;99.90;;;;;;5052966;28;20203;-76
2021/03/08 03:17:26;;;;;;;35.23;23.27;;;-1.10;99.90;;;;;;5053750;28;20251;-76
2021/03/08 03:19:57;;;;;;;38.20;24.37;;;-1.10;99.90;;;;;;5052933;28;20273;-76
2021/03/08 03:22:26;;;;;;;37.43;23.50;;;-1.20;99.90;;;;;;5053512;28;20663;-75
2021/03/08 03:24:56;;;;;;;36.33;23.40;;;-1.20;99.90;;;;;;5053421;28;20262;-76
2021/03/08 03:27:24;;;;;;;37.70;24.23;;;-1.20;99.90;;;;;;5052228;28;20251;-77
2021/03/08 03:29:52;;;;;;;42.13;24.93;;;-1.20;99.90;;;;;;5049583;28;20232;-76
2021/03/08 03:32:19;;;;;;;41.80;25.70;;;-1.20;99.90;;;;;;5047476;28;20238;-76
2021/03/08 03:34:48;;;;;;;38.33;24.33;;;-1.20;99.90;;;;;;5053055;28;20299;-76
2021/03/08 03:37:20;;;;;;;36.30;23.00;;;-1.20;99.90;;;;;;5053089;28;20296;-76
2021/03/08 03:39:48;;;;;;;39.63;23.57;;;-1.30;99.90;;;;;;5053444;28;20619;-76
2021/03/08 03:42:15;;;;;;;41.57;25.97;;;-1.30;99.90;;;;;;5053537;28;20226;-76
2021/03/08 03:44:42;;;;;;;42.13;25.33;;;-1.30;99.90;;;;;;5050540;28;20222;-76
2021/03/08 03:47:08;;;;;;;37.73;24.10;;;-1.20;99.90;;;;;;5053386;28;20245;-75
2021/03/08 03:49:35;;;;;;;42.43;24.67;;;-1.30;99.90;;;;;;5052533;28;20284;-76
2021/03/08 03:52:02;;;;;;;38.70;24.03;;;-1.30;99.90;;;;;;5053631;28;20235;-76
2021/03/08 03:54:30;;;;;;;39.50;24.17;;;-1.30;99.90;;;;;;5052386;28;20231;-76
2021/03/08 03:57:06;;;;;;;42.57;24.60;;;-1.30;99.90;;;;;;5052892;28;20231;-75
2021/03/08 03:59:39;;;;;;;39.97;23.67;;;-1.30;99.90;;;;;;5049709;28;20231;-76
2021/03/08 04:02:09;;;;;;;41.27;24.20;;;-1.30;99.90;;;;;;5048475;28;20298;-76
2021/03/08 04:04:40;;;;;;;41.80;25.97;;;-1.40;99.90;;;;;;5049675;28;20254;-76
2021/03/08 04:07:09;;;;;;;44.73;25.77;;;-1.30;99.90;;;;;;5053033;28;20237;-76
2021/03/08 04:09:39;;;;;;;45.50;26.83;;;-1.20;99.90;;;;;;5051210;28;20722;-75
2021/03/08 04:12:09;;;;;;;43.43;25.93;;;-1.20;99.90;;;;;;5052819;28;20203;-75
2021/03/08 04:14:38;;;;;;;48.47;27.10;;;-1.20;99.90;;;;;;5032825;28;20200;-75
2021/03/08 04:17:06;;;;;;;42.33;26.07;;;-1.10;99.90;;;;;;5037927;28;20219;-76
2021/03/08 04:19:35;;;;;;;42.70;25.13;;;-1.10;99.90;;;;;;5051425;28;20330;-76
2021/03/08 04:22:04;;;;;;;43.00;25.53;;;-1.10;99.90;;;;;;5032693;28;20200;-75
2021/03/08 04:24:32;;;;;;;43.10;25.80;;;-1.10;99.90;;;;;;5047309;28;20309;-76
2021/03/08 04:27:05;;;;;;;43.70;25.17;;;-1.10;99.90;;;;;;5052642;28;20227;-76
2021/03/08 04:29:33;;;;;;;42.60;25.27;;;-1.20;99.90;;;;;;5052690;28;20207;-76
2021/03/08 04:32:01;;;;;;;41.97;25.17;;;-1.20;99.90;;;;;;5051726;28;20318;-76
2021/03/08 04:34:28;;;;;;;44.40;24.07;;;-1.20;99.90;;;;;;5051652;28;20249;-76
2021/03/08 04:36:55;;;;;;;43.30;24.87;;;-1.30;99.90;;;;;;5052122;28;20635;-76
2021/03/08 04:39:23;;;;;;;39.77;24.97;;;-1.30;99.90;;;;;;5051240;28;20716;-76
2021/03/08 04:41:51;;;;;;;42.87;24.33;;;-1.30;99.90;;;;;;5051976;28;20260;-76
2021/03/08 04:44:19;;;;;;;40.57;24.43;;;-1.40;99.90;;;;;;5050554;28;20261;-76
2021/03/08 04:46:47;;;;;;;40.33;24.53;;;-1.40;99.90;;;;;;5052041;28;20242;-76
2021/03/08 04:49:13;;;;;;;39.27;24.43;;;-1.40;99.90;;;;;;5050987;28;20229;-76
2021/03/08 04:51:41;;;;;;;41.50;25.43;;;-1.50;99.90;;;;;;5052122;28;20211;-76
2021/03/08 04:54:08;;;;;;;40.17;25.23;;;-1.50;99.90;;;;;;5051023;28;20203;-76
2021/03/08 04:56:35;;;;;;;43.37;24.77;;;-1.40;99.90;;;;;;5052220;28;20290;-76
2021/03/08 04:59:02;;;;;;;40.53;24.17;;;-1.50;99.90;;;;;;5051545;28;20603;-76
2021/03/08 05:01:33;;;;;;;42.07;24.73;;;-1.40;99.90;;;;;;5052125;28;20288;-76
2021/03/08 05:04:01;;;;;;;44.03;25.07;;;-1.50;99.90;;;;;;5042137;28;20257;-75
2021/03/08 05:06:29;;;;;;;39.97;25.33;;;-1.50;99.90;;;;;;5052003;28;20231;-76
2021/03/08 05:08:58;;;;;;;44.17;25.83;;;-1.50;99.90;;;;;;5050912;28;20227;-76
2021/03/08 05:11:25;;;;;;;43.47;24.10;;;-1.50;99.90;;;;;;5051179;28;20907;-76
2021/03/08 05:13:54;;;;;;;40.40;25.30;;;-1.50;99.90;;;;;;5051614;28;20603;-76
2021/03/08 05:16:21;;;;;;;40.30;25.30;;;-1.50;99.90;;;;;;5050969;28;20237;-76
2021/03/08 05:18:49;;;;;;;39.13;24.13;;;-1.50;99.90;;;;;;5044553;28;20263;-76
2021/03/08 05:21:16;;;;;;;41.33;24.33;;;-1.60;99.90;;;;;;5052057;28;20245;-76
2021/03/08 05:23:43;;;;;;;41.53;25.00;;;-1.50;99.90;;;;;;5050967;28;20303;-76
2021/03/08 05:26:10;;;;;;;43.57;24.07;;;-1.40;99.90;;;;;;5051739;28;20266;-75
2021/03/08 05:28:37;;;;;;;41.00;24.53;;;-1.50;99.90;;;;;;5051193;28;20285;-76
2021/03/08 05:31:05;;;;;;;43.17;24.67;;;-1.50;99.90;;;;;;5051597;28;20240;-75
2021/03/08 05:33:33;;;;;;;43.17;24.47;;;-1.50;99.90;;;;;;5051101;28;20238;-76
2021/03/08 05:36:03;;;;;;;39.23;24.70;;;-1.50;99.90;;;;;;5051469;28;20803;-76
2021/03/08 05:38:31;;;;;;;42.50;23.80;;;-1.60;99.90;;;;;;5050817;28;20683;-76
2021/03/08 05:41:05;;;;;;;42.80;24.03;;;-1.70;99.90;;;;;;5051584;28;20238;-76
2021/03/08 05:43:36;;;;;;;40.43;23.40;;;-1.80;99.90;;;;;;5051390;28;20208;-76
2021/03/08 05:46:08;;;;;;;36.87;23.20;;;-1.80;99.90;;;;;;5038732;28;20262;-76
2021/03/08 05:49:15;;;;;;;38.47;23.57;;;-1.80;99.90;;;;;;5051828;28;20203;-76
2021/03/08 05:52:27;;;;;;;40.90;23.30;;;-1.80;99.90;;;;;;5031364;28;20246;-76
2021/03/08 05:55:21;;;;;;;40.17;23.13;;;-1.90;99.90;;;;;;5016245;28;20249;-76
2021/03/08 05:58:14;;;;;;;43.43;23.87;;;-1.80;99.90;;;;;;5032778;28;20282;-76
2021/03/08 06:00:51;;;;;;;42.70;24.07;;;-1.80;99.90;;;;;;5036240;28;20236;-76
2021/03/08 06:03:30;;;;;;;40.27;23.23;;;-1.80;99.90;;;;;;5045273;28;20214;-76
2021/03/08 06:06:20;;;;;;;39.53;23.77;;;-1.80;99.90;;;;;;5049824;28;20316;-75
2021/03/08 06:09:08;;;;;;;40.87;23.40;;;-1.90;99.90;;;;;;5051036;28;20238;-75
2021/03/08 06:11:36;;;;;;;41.30;22.90;;;-1.90;99.90;;;;;;5047242;28;20244;-75
2021/03/08 06:14:06;;;;;;;45.47;24.00;;;-1.90;99.90;;;;;;5049659;28;20289;-74
2021/03/08 06:16:34;;;;;;;39.17;23.97;;;-1.90;99.90;;;;;;5045359;28;20290;-74
2021/03/08 06:19:02;;;;;;;37.17;22.73;;;-1.90;99.90;;;;;;5043955;28;21007;-74
2021/03/08 06:21:32;;;;;;;41.87;23.70;;;-1.90;99.90;;;;;;5044758;28;20215;-74
2021/03/08 06:24:00;;;;;;;40.63;23.50;;;-2.00;99.90;;;;;;5043730;28;20229;-74
2021/03/08 06:26:27;;;;;;;45.07;24.83;;;-2.00;99.90;;;;;;5044390;28;20330;-74
2021/03/08 06:28:56;;;;;;;53.07;28.07;;;-2.00;99.90;;;;;;5046996;28;20233;-74
2021/03/08 06:31:24;;;;;;;51.53;29.40;;;-2.10;99.90;;;;;;5046649;28;20244;-74
2021/03/08 06:33:50;;;;;;;47.43;28.27;;;-2.00;99.90;;;;;;5045529;28;20278;-75
2021/03/08 06:36:18;;;;;;;65.40;38.33;;;-2.10;99.90;;;;;;5043756;28;20289;-74
2021/03/08 06:38:45;;;;;;;205.37;93.57;;;-2.10;99.90;;;;;;5042161;28;20203;-74
2021/03/08 06:41:11;;;;;;;127.70;64.30;;;-1.90;99.90;;;;;;5051934;28;20228;-76
2021/03/08 06:43:39;;;;;;;89.47;47.07;;;-1.70;99.90;;;;;;5053130;28;20248;-75
2021/03/08 06:46:07;;;;;;;58.43;32.37;;;-1.70;99.90;;;;;;5043134;28;20255;-75
2021/03/08 06:48:35;;;;;;;51.33;29.07;;;-1.60;99.90;;;;;;5047622;28;20318;-75
2021/03/08 06:51:12;;;;;;;75.60;47.17;;;-1.50;99.90;;;;;;5050820;28;20199;-75
2021/03/08 06:53:39;;;;;;;85.87;53.00;;;-1.40;99.90;;;;;;5047215;28;20321;-75
2021/03/08 06:56:23;;;;;;;73.40;45.03;;;-1.30;99.90;;;;;;5048780;28;20222;-75
2021/03/08 06:59:05;;;;;;;64.10;39.40;;;-1.20;99.90;;;;;;5056534;28;20294;-75
2021/03/08 07:01:34;;;;;;;52.93;31.43;;;-0.90;99.90;;;;;;5037482;28;20879;-75
2021/03/08 07:04:02;;;;;;;49.70;31.93;;;-0.60;99.90;;;;;;5045954;28;20243;-75
2021/03/08 07:06:29;;;;;;;48.00;31.07;;;-0.40;99.90;;;;;;5032564;28;20228;-75
2021/03/08 07:09:06;;;;;;;44.33;26.37;;;-0.20;99.90;;;;;;5035009;28;20236;-75
2021/03/08 07:11:33;;;;;;;41.37;25.97;;;0.20;99.90;;;;;;5029346;28;20287;-75
2021/03/08 07:14:00;;;;;;;39.70;24.40;;;0.50;99.90;;;;;;5041725;28;20223;-76
2021/03/08 07:16:38;;;;;;;37.47;24.63;;;0.90;99.90;;;;;;5029445;28;20196;-75
2021/03/08 07:19:05;;;;;;;37.63;23.70;;;1.20;99.90;;;;;;5032995;28;20227;-75
2021/03/08 07:21:32;;;;;;;33.87;22.73;;;1.50;99.90;;;;;;5036857;28;20679;-75
2021/03/08 07:24:10;;;;;;;32.10;22.60;;;1.90;99.90;;;;;;5036197;28;20295;-75
2021/03/08 07:26:37;;;;;;;35.03;22.73;;;2.30;99.90;;;;;;5043360;28;20203;-75
2021/03/08 07:29:11;;;;;;;33.40;23.13;;;2.60;99.90;;;;;;5060593;28;20242;-75
2021/03/08 07:31:40;;;;;;;31.73;22.43;;;2.80;99.90;;;;;;5035975;28;20214;-76
2021/03/08 07:34:09;;;;;;;33.17;22.93;;;3.10;99.90;;;;;;5044730;28;20630;-75
2021/03/08 07:36:36;;;;;;;29.40;22.10;;;3.50;99.90;;;;;;5044588;28;20892;-74
2021/03/08 07:39:14;;;;;;;31.33;21.83;;;3.70;99.90;;;;;;5025001;28;20204;-75
2021/03/08 07:41:54;;;;;;;29.13;22.43;;;4.00;99.90;;;;;;5043257;28;20745;-74
2021/03/08 07:44:22;;;;;;;29.83;22.90;;;4.30;99.90;;;;;;5045185;28;20212;-74
2021/03/08 07:46:50;;;;;;;29.17;22.27;;;4.60;99.90;;;;;;5052693;28;20238;-74
2021/03/08 07:49:17;;;;;;;29.30;22.27;;;5.00;99.90;;;;;;5040316;28;20204;-74
2021/03/08 07:52:06;;;;;;;30.17;22.20;;;5.30;99.90;;;;;;5051770;28;20239;-74
2021/03/08 07:54:52;;;;;;;29.50;22.10;;;5.60;99.90;;;;;;5051055;28;20222;-74
2021/03/08 07:57:19;;;;;;;27.13;21.63;;;5.70;99.90;;;;;;5051454;28;20711;-74
2021/03/08 07:59:46;;;;;;;27.70;22.00;;;5.80;99.90;;;;;;5038648;28;20203;-74
2021/03/08 08:02:13;;;;;;;26.27;21.97;;;6.20;99.90;;;;;;5056109;28;20234;-74
2021/03/08 08:04:40;;;;;;;24.60;21.37;;;6.40;99.90;;;;;;5047553;28;20276;-75
2021/03/08 08:07:08;;;;;;;26.93;22.03;;;6.70;99.90;;;;;;5039791;28;20278;-75
2021/03/08 08:09:39;;;;;;;26.23;22.43;;;6.90;99.90;;;;;;5051970;28;20235;-75
2021/03/08 08:12:10;;;;;;;27.40;21.70;;;7.20;99.90;;;;;;5044723;28;20608;-75
2021/03/08 08:14:39;;;;;;;27.17;22.57;;;7.40;99.90;;;;;;5041200;28;20233;-75
2021/03/08 08:17:08;;;;;;;25.63;21.90;;;7.80;99.90;;;;;;5050767;28;20656;-75
2021/03/08 08:19:39;;;;;;;27.43;22.40;;;7.90;99.90;;;;;;5037716;28;20254;-75
2021/03/08 08:22:09;;;;;;;26.13;23.17;;;8.20;99.90;;;;;;5044301;28;20230;-75
2021/03/08 08:24:37;;;;;;;43.40;36.50;;;8.40;99.90;;;;;;5042340;28;20607;-75
2021/03/08 08:27:04;;;;;;;32.50;28.97;;;8.60;99.90;;;;;;5050139;28;20291;-73
2021/03/08 08:29:33;;;;;;;31.63;26.27;;;8.50;99.90;;;;;;5042168;28;20204;-75
2021/03/08 08:32:01;;;;;;;26.13;23.20;;;7.90;99.90;;;;;;5044910;28;20290;-75
2021/03/08 08:34:45;;;;;;;27.03;24.10;;;8.80;99.90;;;;;;5048752;28;20726;-75
2021/03/08 08:37:14;;;;;;;26.53;23.50;;;8.60;99.90;;;;;;5041848;28;20218;-75
2021/03/08 08:39:41;;;;;;;28.07;23.17;;;9.50;99.90;;;;;;5039289;28;20211;-75
2021/03/08 08:42:19;;;;;;;40.60;36.40;;;9.40;99.90;;;;;;5041874;28;20224;-75
2021/03/08 08:44:47;;;;;;;28.60;25.60;;;8.90;99.90;;;;;;5041429;28;20307;-75
2021/03/08 08:47:32;;;;;;;31.33;28.07;;;8.80;99.90;;;;;;5037352;28;20555;-75
2021/03/08 08:50:04;;;;;;;46.73;41.97;;;8.60;99.90;;;;;;5036722;28;20671;-74
2021/03/08 08:52:51;;;;;;;37.50;33.70;;;8.50;99.90;;;;;;5050529;28;20210;-73
2021/03/08 08:55:21;;;;;;;39.17;33.90;;;8.40;99.90;;;;;;5043419;28;20197;-73
2021/03/08 08:58:28;;;;;;;140.57;112.77;;;8.80;99.90;;;;;;5034922;28;20246;-76
2021/03/08 09:01:23;;;;;;;61.03;48.57;;;8.60;99.90;;;;;;5047495;28;20299;-75
2021/03/08 09:03:55;;;;;;;31.93;27.63;;;9.00;99.90;;;;;;5032419;28;20199;-75
2021/03/08 09:06:55;;;;;;;29.40;26.00;;;8.90;99.90;;;;;;5037423;28;20235;-75
2021/03/08 09:09:24;;;;;;;126.77;78.23;;;8.90;99.90;;;;;;5042339;28;20199;-75
2021/03/08 09:11:54;;;;;;;49.97;40.40;;;8.70;99.90;;;;;;5049079;28;20242;-75
2021/03/08 09:14:29;;;;;;;59.70;50.13;;;8.90;99.90;;;;;;5044376;28;20254;-75
2021/03/08 09:17:17;;;;;;;39.87;32.77;;;8.60;99.90;;;;;;5036206;28;20341;-75
2021/03/08 09:19:46;;;;;;;74.60;64.13;;;9.10;99.90;;;;;;5045200;28;20284;-75
2021/03/08 09:22:35;;;;;;;30.50;26.03;;;9.10;99.90;;;;;;5023368;28;20258;-75
2021/03/08 09:25:12;;;;;;;69.20;56.17;;;10.20;99.90;;;;;;5040657;28;20216;-75
2021/03/08 09:27:40;;;;;;;37.83;32.67;;;9.80;99.90;;;;;;5031624;28;20290;-75
2021/03/08 09:30:09;;;;;;;27.43;24.30;;;9.90;99.90;;;;;;5048413;28;21826;-75
2021/03/08 09:32:37;;;;;;;34.27;27.23;;;9.90;99.90;;;;;;5040769;28;20204;-74
2021/03/08 09:35:06;;;;;;;262.33;117.30;;;10.00;99.90;;;;;;5019423;28;20216;-75
2021/03/08 09:37:34;;;;;;;33.50;28.27;;;9.90;99.90;;;;;;5042416;28;20286;-75
2021/03/08 09:40:03;;;;;;;76.17;64.33;;;9.70;99.90;;;;;;5043782;28;20299;-75
2021/03/08 09:42:34;;;;;;;29.60;25.87;;;9.80;99.90;;;;;;5037583;28;20204;-75
2021/03/08 09:45:00;;;;;;;50.77;45.03;;;10.30;99.90;;;;;;5049121;28;20238;-75
2021/03/08 09:47:38;;;;;;;32.13;28.73;;;10.80;99.90;;;;;;5050729;28;20223;-75
2021/03/08 09:50:06;;;;;;;39.13;35.13;;;10.00;99.90;;;;;;5014815;28;20582;-75
2021/03/08 09:52:35;;;;;;;41.17;34.93;;;10.60;99.90;;;;;;5044725;28;20232;-77
2021/03/08 09:55:01;;;;;;;32.30;28.60;;;10.30;99.90;;;;;;5047192;28;20231;-75
2021/03/08 09:57:36;;;;;;;37.37;33.27;;;10.70;99.90;;;;;;5036934;28;20203;-75
2021/03/08 10:00:05;;;;;;;32.40;28.90;;;11.40;99.90;;;;;;5050139;28;20246;-75
2021/03/08 10:02:32;;;;;;;32.73;28.27;;;11.00;99.90;;;;;;5057601;28;20254;-75
2021/03/08 10:05:00;;;;;;;33.70;28.33;;;9.80;99.90;;;;;;5050373;28;20243;-75
2021/03/08 10:07:27;;;;;;;38.13;32.13;;;10.80;99.90;;;;;;5046373;28;20251;-76
2021/03/08 10:10:15;;;;;;;43.03;38.33;;;9.20;99.90;;;;;;5053306;28;20235;-75
2021/03/08 10:12:42;;;;;;;38.93;33.37;;;9.80;99.90;;;;;;5043503;28;20283;-75
2021/03/08 10:15:10;;;;;;;34.57;30.23;;;9.10;99.90;;;;;;5036219;28;20624;-75
2021/03/08 10:17:53;;;;;;;36.07;28.70;;;10.00;99.90;;;;;;5052793;28;20243;-75
2021/03/08 10:20:20;;;;;;;32.03;27.13;;;9.70;99.90;;;;;;5053800;28;20237;-75
2021/03/08 10:22:46;;;;;;;36.93;28.40;;;9.30;99.90;;;;;;5053073;28;20307;-75
2021/03/08 10:25:25;;;;;;;34.77;28.00;;;9.10;99.90;;;;;;5047499;28;20311;-75
2021/03/08 10:27:52;;;;;;;35.70;28.10;;;8.70;99.90;;;;;;5042568;28;20236;-75
2021/03/08 10:30:20;;;;;;;35.13;27.73;;;8.00;99.90;;;;;;5042796;28;20228;-75
2021/03/08 10:32:49;;;;;;;35.40;28.20;;;7.80;99.90;;;;;;5043091;28;20268;-75
2021/03/08 10:35:16;;;;;;;34.00;27.43;;;8.80;99.90;;;;;;5028406;28;20249;-75
2021/03/08 10:37:43;;;;;;;34.20;27.40;;;8.10;99.90;;;;;;5034421;28;20196;-75
2021/03/08 10:40:10;;;;;;;36.87;29.50;;;8.20;99.90;;;;;;5046047;28;20323;-76
2021/03/08 10:42:38;;;;;;;98.70;69.97;;;7.70;99.90;;;;;;5039261;28;20231;-75
2021/03/08 10:45:09;;;;;;;57.70;41.87;;;7.70;99.90;;;;;;5035835;28;20222;-75
2021/03/08 10:47:35;;;;;;;61.40;44.67;;;7.00;99.90;;;;;;5052917;28;20238;-75
2021/03/08 10:50:03;;;;;;;67.80;48.27;;;7.30;99.90;;;;;;5045054;28;20230;-75
2021/03/08 10:52:29;;;;;;;82.00;59.10;;;7.10;99.90;;;;;;5048946;28;20244;-75
2021/03/08 10:54:56;;;;;;;69.60;46.87;;;7.10;99.90;;;;;;5048194;28;20235;-75
2021/03/08 10:57:24;;;;;;;61.67;45.67;;;7.20;99.90;;;;;;5049001;28;20206;-75
2021/03/08 10:59:53;;;;;;;52.00;36.07;;;7.10;99.90;;;;;;5041149;28;20205;-75
2021/03/08 11:02:21;;;;;;;38.80;29.87;;;7.30;99.90;;;;;;5058053;28;20195;-75
2021/03/08 11:04:49;;;;;;;46.70;34.47;;;8.70;99.90;;;;;;5045165;28;20284;-75
2021/03/08 11:07:28;;;;;;;51.47;38.63;;;8.00;99.90;;;;;;5034208;28;20234;-75
2021/03/08 11:09:54;;;;;;;51.90;37.50;;;9.20;99.90;;;;;;5042507;28;20242;-75
2021/03/08 11:12:23;;;;;;;35.77;28.50;;;9.20;99.90;;;;;;5046726;28;20242;-76
2021/03/08 11:14:52;;;;;;;37.77;29.37;;;8.00;99.90;;;;;;5051856;28;20214;-76
2021/03/08 11:17:31;;;;;;;55.40;44.07;;;8.00;99.90;;;;;;5044458;28;20271;-75
2021/03/08 11:20:07;;;;;;;34.70;26.60;;;9.00;99.90;;;;;;5049725;28;20378;-75
2021/03/08 11:22:50;;;;;;;42.70;34.23;;;9.50;99.90;;;;;;5023827;28;20227;-75
2021/03/08 11:25:25;;;;;;;58.73;44.80;;;10.80;99.90;;;;;;5041287;28;20228;-75
2021/03/08 11:27:52;;;;;;;56.77;44.87;;;11.60;99.90;;;;;;5046813;28;20227;-75
2021/03/08 11:30:21;;;;;;;33.87;26.43;;;11.30;99.90;;;;;;5052968;28;20725;-76
2021/03/08 11:32:52;;;;;;;45.17;34.90;;;11.00;99.90;;;;;;5050923;28;20238;-74
2021/03/08 11:35:20;;;;;;;35.40;28.50;;;10.50;99.90;;;;;;5049781;28;20226;-76
2021/03/08 11:37:48;;;;;;;40.77;32.40;;;10.00;99.90;;;;;;5051916;28;20557;-75
2021/03/08 11:40:16;;;;;;;40.47;32.13;;;11.00;99.90;;;;;;5047223;28;20287;-75
2021/03/08 11:42:43;;;;;;;58.40;44.30;;;9.80;99.90;;;;;;5044999;28;20200;-75
2021/03/08 11:45:11;;;;;;;38.03;30.50;;;9.40;99.90;;;;;;5044512;28;20312;-75
2021/03/08 11:47:38;;;;;;;33.03;27.73;;;10.60;99.90;;;;;;5019213;28;20239;-75
2021/03/08 11:50:06;;;;;;;36.83;29.60;;;11.00;99.90;;;;;;5034791;28;20621;-75
2021/03/08 11:52:33;;;;;;;46.07;36.57;;;12.50;99.90;;;;;;5042599;28;20238;-75
2021/03/08 11:54:59;;;;;;;40.10;33.87;;;11.40;99.90;;;;;;5043912;28;20200;-75
2021/03/08 11:57:28;;;;;;;52.03;38.63;;;10.30;99.90;;;;;;5041339;28;20631;-75
2021/03/08 11:59:54;;;;;;;35.50;27.80;;;10.20;99.90;;;;;;5051808;28;20312;-75
2021/03/08 12:02:21;;;;;;;88.03;62.83;;;10.80;99.90;;;;;;5044950;28;20231;-75
2021/03/08 12:04:49;;;;;;;37.27;28.60;;;11.30;99.90;;;;;;5042418;28;20228;-75
2021/03/08 12:07:15;;;;;;;36.37;31.67;;;9.20;99.90;;;;;;5043629;28;20927;-75
2021/03/08 12:09:41;;;;;;;31.57;26.90;;;8.40;99.90;;;;;;5041182;28;20240;-75
2021/03/08 12:12:09;;;;;;;27.57;22.63;;;9.70;99.90;;;;;;5043432;28;20283;-75
2021/03/08 12:14:35;;;;;;;31.73;26.30;;;10.90;99.90;;;;;;5038743;28;20258;-75
2021/03/08 12:17:02;;;;;;;29.63;24.83;;;10.70;99.90;;;;;;5040326;28;20218;-75
2021/03/08 12:19:28;;;;;;;31.07;25.30;;;10.00;99.90;;;;;;5032078;28;20236;-75
2021/03/08 12:21:56;;;;;;;31.37;25.60;;;11.40;99.90;;;;;;5047929;28;20239;-75
2021/03/08 12:24:22;;;;;;;28.03;23.80;;;12.20;99.90;;;;;;5033078;28;20240;-76
2021/03/08 12:26:49;;;;;;;26.27;22.73;;;12.40;99.90;;;;;;5044245;28;20695;-75
2021/03/08 12:29:15;;;;;;;25.43;22.27;;;11.50;99.90;;;;;;5051020;28;20261;-75
2021/03/08 12:31:41;;;;;;;29.03;22.47;;;11.90;99.90;;;;;;5051525;28;20290;-75
2021/03/08 12:34:08;;;;;;;35.87;31.97;;;11.40;99.90;;;;;;5052129;28;20207;-74
2021/03/08 12:36:34;;;;;;;40.80;34.87;;;10.50;99.90;;;;;;5052243;28;20668;-75
2021/03/08 12:39:02;;;;;;;31.70;25.73;;;11.10;99.90;;;;;;5049218;28;20239;-75
2021/03/08 12:41:29;;;;;;;25.53;21.23;;;11.50;99.90;;;;;;5045930;28;20282;-75
2021/03/08 12:43:55;;;;;;;37.20;30.67;;;10.80;99.90;;;;;;5050501;28;20238;-76
2021/03/08 12:46:24;;;;;;;30.17;24.67;;;10.30;99.90;;;;;;5035596;28;20317;-75